sensor_id;sensor_type;location;lat;lon;timestamp;P1;durP1;ratioP1;P2;durP2;ratioP2
6928;SDS011;3504;52.616;13.238;2022-09-09T00:09:40;12.60;;;10.63;;
6928;SDS011;3504;52.616;13.238;2022-09-09T00:15:14;11.87;;;9.80;;
6928;SDS011;3504;52.616;13.238;2022-09-09T00:20:23;10.07;;;9.03;;
6928;SDS011;3504;52.616;13.238;2022-09-09T00:25:37;9.17;;;7.90;;
6928;SDS011;3504;52.616;13.238;2022-09-09T00:31:01;9.57;;;7.77;;
6928;SDS011;3504;52.616;13.238;2022-09-09T00:36:16;10.40;;;8.47;;
6928;SDS011;3504;52.616;13.238;2022-09-09T00:41:33;8.83;;;7.97;;
6928;SDS011;3504;52.616;13.238;2022-09-09T00:47:12;9.07;;;8.00;;
6928;SDS011;3504;52.616;13.238;2022-09-09T00:52:40;9.37;;;8.37;;
6928;SDS011;3504;52.616;13.238;2022-09-09T00:58:02;9.83;;;8.43;;
6928;SDS011;3504;52.616;13.238;2022-09-09T01:30:43;9.03;;;6.80;;
6928;SDS011;3504;52.616;13.238;2022-09-09T01:35:55;7.70;;;6.90;;
6928;SDS011;3504;52.616;13.238;2022-09-09T01:41:05;9.40;;;7.00;;
6928;SDS011;3504;52.616;13.238;2022-09-09T01:46:27;8.47;;;6.67;;
6928;SDS011;3504;52.616;13.238;2022-09-09T01:51:31;8.20;;;6.50;;
6928;SDS011;3504;52.616;13.238;2022-09-09T01:56:39;9.17;;;7.43;;
6928;SDS011;3504;52.616;13.238;2022-09-09T02:01:49;8.30;;;7.27;;
6928;SDS011;3504;52.616;13.238;2022-09-09T02:07:31;7.53;;;6.70;;
6928;SDS011;3504;52.616;13.238;2022-09-09T02:13:07;11.20;;;8.80;;
6928;SDS011;3504;52.616;13.238;2022-09-09T02:18:13;8.30;;;7.50;;
6928;SDS011;3504;52.616;13.238;2022-09-09T02:23:20;8.43;;;7.17;;
6928;SDS011;3504;52.616;13.238;2022-09-09T02:28:24;8.80;;;7.83;;
6928;SDS011;3504;52.616;13.238;2022-09-09T02:33:30;9.17;;;7.20;;
6928;SDS011;3504;52.616;13.238;2022-09-09T02:38:40;9.97;;;7.90;;
6928;SDS011;3504;52.616;13.238;2022-09-09T02:43:49;9.13;;;8.23;;
6928;SDS011;3504;52.616;13.238;2022-09-09T02:49:00;10.37;;;9.27;;
6928;SDS011;3504;52.616;13.238;2022-09-09T02:54:32;9.13;;;8.13;;
6928;SDS011;3504;52.616;13.238;2022-09-09T02:59:40;9.00;;;8.03;;
6928;SDS011;3504;52.616;13.238;2022-09-09T03:04:44;9.23;;;8.20;;
6928;SDS011;3504;52.616;13.238;2022-09-09T03:09:50;8.63;;;7.73;;
6928;SDS011;3504;52.616;13.238;2022-09-09T03:14:55;12.40;;;8.30;;
6928;SDS011;3504;52.616;13.238;2022-09-09T03:19:57;8.33;;;7.37;;
6928;SDS011;3504;52.616;13.238;2022-09-09T03:25:00;8.77;;;7.87;;
6928;SDS011;3504;52.616;13.238;2022-09-09T03:30:03;8.90;;;8.00;;
6928;SDS011;3504;52.616;13.238;2022-09-09T03:35:06;9.13;;;7.60;;
6928;SDS011;3504;52.616;13.238;2022-09-09T03:40:08;7.70;;;6.90;;
6928;SDS011;3504;52.616;13.238;2022-09-09T03:45:12;7.87;;;6.67;;
6928;SDS011;3504;52.616;13.238;2022-09-09T03:50:14;8.67;;;7.40;;
6928;SDS011;3504;52.616;13.238;2022-09-09T03:55:20;9.47;;;7.03;;
6928;SDS011;3504;52.616;13.238;2022-09-09T04:00:21;10.67;;;6.60;;
6928;SDS011;3504;52.616;13.238;2022-09-09T04:05:26;7.00;;;6.30;;
6928;SDS011;3504;52.616;13.238;2022-09-09T04:10:27;7.40;;;6.57;;
6928;SDS011;3504;52.616;13.238;2022-09-09T04:15:31;7.93;;;6.73;;
6928;SDS011;3504;52.616;13.238;2022-09-09T04:20:33;8.80;;;7.00;;
6928;SDS011;3504;52.616;13.238;2022-09-09T04:25:34;7.40;;;6.27;;
6928;SDS011;3504;52.616;13.238;2022-09-09T04:30:35;7.63;;;6.93;;
6928;SDS011;3504;52.616;13.238;2022-09-09T04:35:37;8.63;;;7.03;;
6928;SDS011;3504;52.616;13.238;2022-09-09T04:40:39;7.70;;;7.00;;
6928;SDS011;3504;52.616;13.238;2022-09-09T04:45:51;9.50;;;7.50;;
6928;SDS011;3504;52.616;13.238;2022-09-09T04:50:55;7.47;;;6.60;;
6928;SDS011;3504;52.616;13.238;2022-09-09T04:56:13;7.60;;;6.80;;
6928;SDS011;3504;52.616;13.238;2022-09-09T05:01:23;10.90;;;8.20;;
6928;SDS011;3504;52.616;13.238;2022-09-09T05:06:27;9.57;;;8.17;;
6928;SDS011;3504;52.616;13.238;2022-09-09T05:11:32;10.60;;;7.53;;
6928;SDS011;3504;52.616;13.238;2022-09-09T05:16:46;8.23;;;7.37;;
6928;SDS011;3504;52.616;13.238;2022-09-09T05:21:47;7.03;;;6.33;;
6928;SDS011;3504;52.616;13.238;2022-09-09T05:26:52;7.37;;;6.67;;
6928;SDS011;3504;52.616;13.238;2022-09-09T05:31:53;9.03;;;8.13;;
6928;SDS011;3504;52.616;13.238;2022-09-09T05:36:56;8.50;;;7.33;;
6928;SDS011;3504;52.616;13.238;2022-09-09T05:41:59;11.47;;;9.07;;
6928;SDS011;3504;52.616;13.238;2022-09-09T05:47:01;9.20;;;7.20;;
6928;SDS011;3504;52.616;13.238;2022-09-09T05:52:02;7.77;;;6.97;;
6928;SDS011;3504;52.616;13.238;2022-09-09T05:57:05;9.97;;;7.90;;
6928;SDS011;3504;52.616;13.238;2022-09-09T06:02:07;10.47;;;8.73;;
6928;SDS011;3504;52.616;13.238;2022-09-09T06:07:12;8.63;;;7.73;;
6928;SDS011;3504;52.616;13.238;2022-09-09T06:12:15;9.03;;;7.57;;
6928;SDS011;3504;52.616;13.238;2022-09-09T06:17:17;10.77;;;7.50;;
6928;SDS011;3504;52.616;13.238;2022-09-09T06:22:17;9.87;;;8.10;;
6928;SDS011;3504;52.616;13.238;2022-09-09T06:27:19;10.53;;;8.03;;
6928;SDS011;3504;52.616;13.238;2022-09-09T06:32:20;12.60;;;7.60;;
6928;SDS011;3504;52.616;13.238;2022-09-09T06:37:23;10.53;;;7.00;;
6928;SDS011;3504;52.616;13.238;2022-09-09T06:42:24;10.97;;;7.67;;
6928;SDS011;3504;52.616;13.238;2022-09-09T06:47:26;10.93;;;6.93;;
6928;SDS011;3504;52.616;13.238;2022-09-09T06:52:30;7.67;;;6.10;;
6928;SDS011;3504;52.616;13.238;2022-09-09T06:57:34;9.27;;;6.53;;
6928;SDS011;3504;52.616;13.238;2022-09-09T07:02:35;10.27;;;5.77;;
6928;SDS011;3504;52.616;13.238;2022-09-09T07:07:41;6.60;;;5.90;;
6928;SDS011;3504;52.616;13.238;2022-09-09T07:12:42;6.13;;;5.50;;
6928;SDS011;3504;52.616;13.238;2022-09-09T07:17:47;8.27;;;5.30;;
6928;SDS011;3504;52.616;13.238;2022-09-09T07:22:48;5.67;;;5.00;;
6928;SDS011;3504;52.616;13.238;2022-09-09T07:27:50;9.30;;;5.00;;
6928;SDS011;3504;52.616;13.238;2022-09-09T07:32:52;5.97;;;5.30;;
6928;SDS011;3504;52.616;13.238;2022-09-09T07:37:54;7.60;;;3.97;;
6928;SDS011;3504;52.616;13.238;2022-09-09T07:42:57;7.07;;;4.07;;
6928;SDS011;3504;52.616;13.238;2022-09-09T07:47:59;5.00;;;4.50;;
6928;SDS011;3504;52.616;13.238;2022-09-09T07:53:00;6.30;;;3.90;;
6928;SDS011;3504;52.616;13.238;2022-09-09T07:58:02;6.33;;;4.50;;
6928;SDS011;3504;52.616;13.238;2022-09-09T08:03:03;7.37;;;3.80;;
6928;SDS011;3504;52.616;13.238;2022-09-09T08:08:29;5.40;;;3.53;;
6928;SDS011;3504;52.616;13.238;2022-09-09T08:13:30;10.82;;;4.20;;
6928;SDS011;3504;52.616;13.238;2022-09-09T08:18:32;6.10;;;3.00;;
6928;SDS011;3504;52.616;13.238;2022-09-09T08:23:33;3.43;;;3.13;;
6928;SDS011;3504;52.616;13.238;2022-09-09T08:28:36;6.43;;;2.90;;
6928;SDS011;3504;52.616;13.238;2022-09-09T08:33:37;4.70;;;2.92;;
6928;SDS011;3504;52.616;13.238;2022-09-09T08:38:41;5.90;;;2.75;;
6928;SDS011;3504;52.616;13.238;2022-09-09T08:43:43;8.13;;;2.38;;
6928;SDS011;3504;52.616;13.238;2022-09-09T08:48:57;3.80;;;2.42;;
6928;SDS011;3504;52.616;13.238;2022-09-09T08:54:06;4.45;;;2.33;;
6928;SDS011;3504;52.616;13.238;2022-09-09T08:59:11;4.65;;;2.55;;
6928;SDS011;3504;52.616;13.238;2022-09-09T09:04:41;4.40;;;2.63;;
6928;SDS011;3504;52.616;13.238;2022-09-09T09:15:25;5.18;;;2.85;;
6928;SDS011;3504;52.616;13.238;2022-09-09T09:26:16;4.45;;;3.00;;
6928;SDS011;3504;52.616;13.238;2022-09-09T09:31:19;7.45;;;2.72;;
6928;SDS011;3504;52.616;13.238;2022-09-09T09:36:41;6.40;;;2.50;;
6928;SDS011;3504;52.616;13.238;2022-09-09T09:41:50;5.70;;;3.05;;
6928;SDS011;3504;52.616;13.238;2022-09-09T09:53:01;6.55;;;2.42;;
6928;SDS011;3504;52.616;13.238;2022-09-09T09:58:13;3.03;;;2.50;;
6928;SDS011;3504;52.616;13.238;2022-09-09T10:03:27;4.10;;;2.13;;
6928;SDS011;3504;52.616;13.238;2022-09-09T10:08:33;6.00;;;2.10;;
6928;SDS011;3504;52.616;13.238;2022-09-09T10:13:56;4.10;;;1.95;;
6928;SDS011;3504;52.616;13.238;2022-09-09T10:30:28;6.05;;;2.30;;
6928;SDS011;3504;52.616;13.238;2022-09-09T10:36:06;4.13;;;1.85;;
6928;SDS011;3504;52.616;13.238;2022-09-09T10:41:24;4.13;;;1.80;;
6928;SDS011;3504;52.616;13.238;2022-09-09T10:52:31;3.78;;;1.77;;
6928;SDS011;3504;52.616;13.238;2022-09-09T10:57:39;3.15;;;1.85;;
6928;SDS011;3504;52.616;13.238;2022-09-09T11:03:06;4.35;;;1.75;;
6928;SDS011;3504;52.616;13.238;2022-09-09T11:08:28;4.70;;;1.75;;
6928;SDS011;3504;52.616;13.238;2022-09-09T11:19:00;5.15;;;1.70;;
6928;SDS011;3504;52.616;13.238;2022-09-09T11:24:14;4.95;;;1.52;;
6928;SDS011;3504;52.616;13.238;2022-09-09T11:40:26;5.18;;;1.60;;
6928;SDS011;3504;52.616;13.238;2022-09-09T11:45:28;2.75;;;1.50;;
6928;SDS011;3504;52.616;13.238;2022-09-09T11:50:35;3.63;;;1.58;;
6928;SDS011;3504;52.616;13.238;2022-09-09T11:55:37;3.28;;;1.30;;
6928;SDS011;3504;52.616;13.238;2022-09-09T12:00:41;2.25;;;1.50;;
6928;SDS011;3504;52.616;13.238;2022-09-09T12:05:48;3.92;;;1.40;;
6928;SDS011;3504;52.616;13.238;2022-09-09T12:10:56;3.38;;;1.20;;
6928;SDS011;3504;52.616;13.238;2022-09-09T12:15:59;3.33;;;1.48;;
6928;SDS011;3504;52.616;13.238;2022-09-09T12:26:41;4.07;;;1.70;;
6928;SDS011;3504;52.616;13.238;2022-09-09T12:31:56;2.85;;;1.10;;
6928;SDS011;3504;52.616;13.238;2022-09-09T12:42:39;4.93;;;1.58;;
6928;SDS011;3504;52.616;13.238;2022-09-09T12:47:48;4.85;;;1.73;;
6928;SDS011;3504;52.616;13.238;2022-09-09T12:53:47;4.15;;;1.67;;
6928;SDS011;3504;52.616;13.238;2022-09-09T12:58:35;2.35;;;1.20;;
6928;SDS011;3504;52.616;13.238;2022-09-09T13:03:42;2.80;;;1.48;;
6928;SDS011;3504;52.616;13.238;2022-09-09T13:08:47;2.00;;;1.52;;
6928;SDS011;3504;52.616;13.238;2022-09-09T13:13:52;2.67;;;1.30;;
6928;SDS011;3504;52.616;13.238;2022-09-09T13:18:56;4.65;;;1.52;;
6928;SDS011;3504;52.616;13.238;2022-09-09T13:24:57;2.55;;;1.38;;
6928;SDS011;3504;52.616;13.238;2022-09-09T13:29:50;3.17;;;1.20;;
6928;SDS011;3504;52.616;13.238;2022-09-09T13:34:58;4.25;;;1.33;;
6928;SDS011;3504;52.616;13.238;2022-09-09T13:40:01;4.25;;;1.70;;
6928;SDS011;3504;52.616;13.238;2022-09-09T13:45:14;3.38;;;1.52;;
6928;SDS011;3504;52.616;13.238;2022-09-09T13:55:29;3.60;;;1.25;;
6928;SDS011;3504;52.616;13.238;2022-09-09T14:00:31;3.67;;;1.50;;
6928;SDS011;3504;52.616;13.238;2022-09-09T14:05:35;2.88;;;1.38;;
6928;SDS011;3504;52.616;13.238;2022-09-09T14:10:36;3.58;;;1.10;;
6928;SDS011;3504;52.616;13.238;2022-09-09T14:15:38;2.95;;;1.70;;
6928;SDS011;3504;52.616;13.238;2022-09-09T14:20:38;4.30;;;1.60;;
6928;SDS011;3504;52.616;13.238;2022-09-09T14:25:46;2.33;;;1.38;;
6928;SDS011;3504;52.616;13.238;2022-09-09T14:30:46;4.55;;;1.50;;
6928;SDS011;3504;52.616;13.238;2022-09-09T14:35:48;4.70;;;1.63;;
6928;SDS011;3504;52.616;13.238;2022-09-09T14:40:57;3.22;;;1.40;;
6928;SDS011;3504;52.616;13.238;2022-09-09T14:46:05;2.65;;;1.50;;
6928;SDS011;3504;52.616;13.238;2022-09-09T14:51:12;6.35;;;1.52;;
6928;SDS011;3504;52.616;13.238;2022-09-09T14:56:17;3.00;;;1.48;;
6928;SDS011;3504;52.616;13.238;2022-09-09T15:01:21;3.50;;;1.33;;
6928;SDS011;3504;52.616;13.238;2022-09-09T15:06:23;2.85;;;1.10;;
6928;SDS011;3504;52.616;13.238;2022-09-09T15:11:33;4.38;;;1.40;;
6928;SDS011;3504;52.616;13.238;2022-09-09T15:16:39;3.58;;;1.20;;
6928;SDS011;3504;52.616;13.238;2022-09-09T15:21:40;4.88;;;1.40;;
6928;SDS011;3504;52.616;13.238;2022-09-09T15:26:42;1.80;;;1.13;;
6928;SDS011;3504;52.616;13.238;2022-09-09T15:31:42;5.00;;;1.48;;
6928;SDS011;3504;52.616;13.238;2022-09-09T15:36:45;3.10;;;1.13;;
6928;SDS011;3504;52.616;13.238;2022-09-09T15:41:46;2.33;;;1.10;;
6928;SDS011;3504;52.616;13.238;2022-09-09T15:46:49;3.05;;;1.30;;
6928;SDS011;3504;52.616;13.238;2022-09-09T15:51:57;3.20;;;1.20;;
6928;SDS011;3504;52.616;13.238;2022-09-09T15:57:03;2.92;;;1.30;;
6928;SDS011;3504;52.616;13.238;2022-09-09T16:02:05;1.98;;;1.00;;
6928;SDS011;3504;52.616;13.238;2022-09-09T16:07:08;3.65;;;1.70;;
6928;SDS011;3504;52.616;13.238;2022-09-09T16:12:08;4.45;;;1.50;;
6928;SDS011;3504;52.616;13.238;2022-09-09T16:17:14;2.08;;;1.30;;
6928;SDS011;3504;52.616;13.238;2022-09-09T16:22:15;2.38;;;1.70;;
6928;SDS011;3504;52.616;13.238;2022-09-09T16:27:17;2.65;;;1.63;;
6928;SDS011;3504;52.616;13.238;2022-09-09T16:32:18;3.17;;;1.52;;
6928;SDS011;3504;52.616;13.238;2022-09-09T16:37:19;4.93;;;1.90;;
6928;SDS011;3504;52.616;13.238;2022-09-09T16:42:20;6.85;;;1.80;;
6928;SDS011;3504;52.616;13.238;2022-09-09T16:47:22;4.57;;;1.88;;
6928;SDS011;3504;52.616;13.238;2022-09-09T16:52:22;3.40;;;1.80;;
6928;SDS011;3504;52.616;13.238;2022-09-09T16:57:24;5.93;;;2.13;;
6928;SDS011;3504;52.616;13.238;2022-09-09T17:02:25;5.45;;;2.08;;
6928;SDS011;3504;52.616;13.238;2022-09-09T17:07:26;4.35;;;2.00;;
6928;SDS011;3504;52.616;13.238;2022-09-09T17:12:27;4.13;;;2.00;;
6928;SDS011;3504;52.616;13.238;2022-09-09T17:17:29;6.03;;;2.33;;
6928;SDS011;3504;52.616;13.238;2022-09-09T17:22:29;5.28;;;2.08;;
6928;SDS011;3504;52.616;13.238;2022-09-09T17:27:31;7.63;;;3.97;;
6928;SDS011;3504;52.616;13.238;2022-09-09T17:32:32;3.35;;;2.92;;
6928;SDS011;3504;52.616;13.238;2022-09-09T17:37:34;8.43;;;2.88;;
6928;SDS011;3504;52.616;13.238;2022-09-09T17:42:34;5.90;;;2.53;;
6928;SDS011;3504;52.616;13.238;2022-09-09T17:47:36;4.05;;;2.33;;
6928;SDS011;3504;52.616;13.238;2022-09-09T17:52:37;4.53;;;2.38;;
6928;SDS011;3504;52.616;13.238;2022-09-09T17:57:39;4.22;;;1.95;;
6928;SDS011;3504;52.616;13.238;2022-09-09T18:02:39;3.38;;;1.80;;
6928;SDS011;3504;52.616;13.238;2022-09-09T18:07:41;4.47;;;2.17;;
6928;SDS011;3504;52.616;13.238;2022-09-09T18:12:41;8.20;;;2.13;;
6928;SDS011;3504;52.616;13.238;2022-09-09T18:17:43;5.63;;;2.15;;
6928;SDS011;3504;52.616;13.238;2022-09-09T18:22:44;2.83;;;2.05;;
6928;SDS011;3504;52.616;13.238;2022-09-09T18:27:46;4.35;;;2.30;;
6928;SDS011;3504;52.616;13.238;2022-09-09T18:32:47;3.80;;;2.30;;
6928;SDS011;3504;52.616;13.238;2022-09-09T18:37:50;4.88;;;2.30;;
6928;SDS011;3504;52.616;13.238;2022-09-09T18:42:51;3.75;;;2.78;;
6928;SDS011;3504;52.616;13.238;2022-09-09T18:47:52;5.22;;;2.65;;
6928;SDS011;3504;52.616;13.238;2022-09-09T18:52:53;4.85;;;2.67;;
6928;SDS011;3504;52.616;13.238;2022-09-09T18:57:54;5.63;;;2.70;;
6928;SDS011;3504;52.616;13.238;2022-09-09T19:02:57;4.25;;;2.85;;
6928;SDS011;3504;52.616;13.238;2022-09-09T19:07:59;5.60;;;2.22;;
6928;SDS011;3504;52.616;13.238;2022-09-09T19:12:59;4.18;;;2.42;;
6928;SDS011;3504;52.616;13.238;2022-09-09T19:18:02;5.40;;;1.95;;
6928;SDS011;3504;52.616;13.238;2022-09-09T19:23:03;2.28;;;1.80;;
6928;SDS011;3504;52.616;13.238;2022-09-09T19:28:05;1.77;;;1.50;;
6928;SDS011;3504;52.616;13.238;2022-09-09T19:33:06;1.90;;;1.55;;
6928;SDS011;3504;52.616;13.238;2022-09-09T19:38:08;4.45;;;1.73;;
6928;SDS011;3504;52.616;13.238;2022-09-09T19:43:08;2.85;;;1.58;;
6928;SDS011;3504;52.616;13.238;2022-09-09T19:48:10;2.72;;;1.90;;
6928;SDS011;3504;52.616;13.238;2022-09-09T19:53:11;2.72;;;1.55;;
6928;SDS011;3504;52.616;13.238;2022-09-09T19:58:13;2.50;;;2.15;;
6928;SDS011;3504;52.616;13.238;2022-09-09T20:03:13;4.15;;;2.28;;
6928;SDS011;3504;52.616;13.238;2022-09-09T20:08:15;4.53;;;2.22;;
6928;SDS011;3504;52.616;13.238;2022-09-09T20:13:16;3.13;;;1.65;;
6928;SDS011;3504;52.616;13.238;2022-09-09T20:18:18;6.15;;;2.20;;
6928;SDS011;3504;52.616;13.238;2022-09-09T20:23:18;2.80;;;1.65;;
6928;SDS011;3504;52.616;13.238;2022-09-09T20:28:21;5.35;;;2.03;;
6928;SDS011;3504;52.616;13.238;2022-09-09T20:33:21;5.30;;;1.58;;
6928;SDS011;3504;52.616;13.238;2022-09-09T20:38:23;2.15;;;1.42;;
6928;SDS011;3504;52.616;13.238;2022-09-09T20:43:24;3.63;;;1.53;;
6928;SDS011;3504;52.616;13.238;2022-09-09T20:48:25;1.42;;;1.23;;
6928;SDS011;3504;52.616;13.238;2022-09-09T20:53:27;2.67;;;1.65;;
6928;SDS011;3504;52.616;13.238;2022-09-09T20:58:31;3.38;;;1.60;;
6928;SDS011;3504;52.616;13.238;2022-09-09T21:03:33;3.05;;;1.48;;
6928;SDS011;3504;52.616;13.238;2022-09-09T21:08:37;2.40;;;1.60;;
6928;SDS011;3504;52.616;13.238;2022-09-09T21:13:38;3.05;;;1.70;;
6928;SDS011;3504;52.616;13.238;2022-09-09T21:18:41;2.17;;;1.57;;
6928;SDS011;3504;52.616;13.238;2022-09-09T21:23:43;1.98;;;1.52;;
6928;SDS011;3504;52.616;13.238;2022-09-09T21:28:45;2.80;;;1.97;;
6928;SDS011;3504;52.616;13.238;2022-09-09T21:33:46;5.73;;;1.60;;
6928;SDS011;3504;52.616;13.238;2022-09-09T21:38:47;2.67;;;1.50;;
6928;SDS011;3504;52.616;13.238;2022-09-09T21:43:50;3.23;;;1.97;;
6928;SDS011;3504;52.616;13.238;2022-09-09T21:48:54;1.50;;;1.40;;
6928;SDS011;3504;52.616;13.238;2022-09-09T21:53:55;5.07;;;2.20;;
6928;SDS011;3504;52.616;13.238;2022-09-09T21:58:58;2.33;;;1.60;;
6928;SDS011;3504;52.616;13.238;2022-09-09T22:04:02;2.50;;;1.57;;
6928;SDS011;3504;52.616;13.238;2022-09-09T22:09:04;5.17;;;2.20;;
6928;SDS011;3504;52.616;13.238;2022-09-09T22:14:04;6.07;;;1.87;;
6928;SDS011;3504;52.616;13.238;2022-09-09T22:19:07;2.50;;;1.53;;
6928;SDS011;3504;52.616;13.238;2022-09-09T22:24:08;2.97;;;1.83;;
6928;SDS011;3504;52.616;13.238;2022-09-09T22:29:10;3.47;;;1.77;;
6928;SDS011;3504;52.616;13.238;2022-09-09T22:34:10;5.07;;;1.70;;
6928;SDS011;3504;52.616;13.238;2022-09-09T22:39:12;4.07;;;1.60;;
6928;SDS011;3504;52.616;13.238;2022-09-09T22:44:13;2.37;;;1.70;;
6928;SDS011;3504;52.616;13.238;2022-09-09T22:49:15;3.50;;;1.77;;
6928;SDS011;3504;52.616;13.238;2022-09-09T22:54:15;2.33;;;2.13;;
6928;SDS011;3504;52.616;13.238;2022-09-09T22:59:23;2.23;;;1.80;;
6928;SDS011;3504;52.616;13.238;2022-09-09T23:04:23;3.30;;;1.73;;
6928;SDS011;3504;52.616;13.238;2022-09-09T23:09:25;3.07;;;1.83;;
6928;SDS011;3504;52.616;13.238;2022-09-09T23:14:26;4.00;;;1.87;;
6928;SDS011;3504;52.616;13.238;2022-09-09T23:19:28;6.43;;;1.73;;
6928;SDS011;3504;52.616;13.238;2022-09-09T23:24:28;3.17;;;1.90;;
6928;SDS011;3504;52.616;13.238;2022-09-09T23:29:30;4.53;;;2.10;;
6928;SDS011;3504;52.616;13.238;2022-09-09T23:34:31;4.77;;;2.30;;
6928;SDS011;3504;52.616;13.238;2022-09-09T23:39:33;6.07;;;2.97;;
6928;SDS011;3504;52.616;13.238;2022-09-09T23:44:34;4.30;;;1.93;;
6928;SDS011;3504;52.616;13.238;2022-09-09T23:49:38;5.63;;;2.53;;
6928;SDS011;3504;52.616;13.238;2022-09-09T23:54:38;5.63;;;2.63;;
6928;SDS011;3504;52.616;13.238;2022-09-09T23:59:40;5.87;;;2.87;;
